Time,TemperatureF,DewpointF,PressureIn,WindDirection,WindDirectionDegrees,WindSpeedMPH,WindSpeedGustMPH,Humidity,HourlyPrecipIn,Conditions,Clouds,dailyrainin,SoftwareType,DateUTC
2013-09-07 00:01:00,72.7,72.0,30.03,NNE,19,0.0,6.0,98,0.00,,,0.53,weatherlink.com 1.10,2013-09-07 04:01:00,
2013-09-07 00:16:00,72.5,72.0,30.03,North,350,0.0,6.0,98,0.00,,,0.53,weatherlink.com 1.10,2013-09-07 04:16:00,
2013-09-07 00:31:00,72.2,72.0,30.02,North,350,0.0,1.0,98,0.00,,,0.00,weatherlink.com 1.10,2013-09-07 04:31:00,
2013-09-07 00:46:00,71.9,71.0,30.02,North,351,1.0,1.0,98,0.00,,,0.00,weatherlink.com 1.10,2013-09-07 04:46:00,
2013-09-07 01:01:00,71.6,71.0,30.01,North,351,0.0,0.0,98,0.00,,,0.00,weatherlink.com 1.10,2013-09-07 05:01:00,
2013-09-07 01:16:00,71.4,71.0,30.01,North,351,0.0,0.0,98,0.00,,,0.00,weatherlink.com 1.10,2013-09-07 05:16:00,
2013-09-07 01:31:00,71.2,71.0,30.01,North,351,0.0,0.0,98,0.00,,,0.00,weatherlink.com 1.10,2013-09-07 05:31:00,
2013-09-07 01:46:00,71.1,71.0,30.01,North,351,0.0,0.0,98,0.00,,,0.00,weatherlink.com 1.10,2013-09-07 05:46:00,
2013-09-07 02:01:00,70.9,70.0,30.01,North,351,0.0,0.0,98,0.00,,,0.00,weatherlink.com 1.10,2013-09-07 06:01:00,
2013-09-07 02:16:00,70.7,70.0,30.00,North,351,0.0,0.0,98,0.00,,,0.00,weatherlink.com 1.10,2013-09-07 06:16:00,
2013-09-07 02:31:00,70.5,70.0,30.00,North,351,0.0,1.0,98,0.00,,,0.00,weatherlink.com 1.10,2013-09-07 06:31:00,
2013-09-07 02:46:00,70.6,70.0,30.00,North,351,0.0,1.0,98,0.00,,,0.00,weatherlink.com 1.10,2013-09-07 06:46:00,
2013-09-07 03:01:00,70.6,70.0,30.00,North,351,0.0,1.0,98,0.00,,,0.00,weatherlink.com 1.10,2013-09-07 07:01:00,
2013-09-07 03:16:00,70.6,70.0,30.00,North,351,0.0,4.0,98,0.00,,,0.00,weatherlink.com 1.10,2013-09-07 07:16:00,
2013-09-07 03:31:00,70.7,70.0,29.99,North,351,0.0,1.0,98,0.00,,,0.00,weatherlink.com 1.10,2013-09-07 07:31:00,
2013-09-07 03:46:00,70.6,70.0,30.00,North,351,0.0,1.0,98,0.00,,,0.00,weatherlink.com 1.10,2013-09-07 07:46:00,
2013-09-07 04:01:00,70.5,70.0,29.99,North,350,0.0,1.0,98,0.00,,,0.00,weatherlink.com 1.10,2013-09-07 08:01:00,
2013-09-07 04:16:00,70.4,70.0,29.98,North,350,0.0,1.0,98,0.00,,,0.00,weatherlink.com 1.10,2013-09-07 08:16:00,
2013-09-07 04:31:00,70.2,70.0,29.98,North,350,0.0,0.0,98,0.00,,,0.00,weatherlink.com 1.10,2013-09-07 08:31:00,
2013-09-07 04:46:00,70.0,69.0,29.98,North,350,0.0,0.0,98,0.00,,,0.00,weatherlink.com 1.10,2013-09-07 08:46:00,
2013-09-07 05:01:00,69.9,69.0,29.98,North,350,0.0,0.0,98,0.00,,,0.00,weatherlink.com 1.10,2013-09-07 09:01:00,
2013-09-07 05:16:00,69.7,69.0,29.98,North,350,0.0,0.0,98,0.00,,,0.00,weatherlink.com 1.10,2013-09-07 09:16:00,
2013-09-07 05:31:00,69.6,69.0,29.98,North,350,0.0,0.0,98,0.00,,,0.00,weatherlink.com 1.10,2013-09-07 09:31:00,
2013-09-07 05:46:00,69.5,69.0,29.98,North,350,0.0,0.0,98,0.00,,,0.00,weatherlink.com 1.10,2013-09-07 09:46:00,
2013-09-07 06:01:00,69.5,69.0,29.98,North,350,0.0,1.0,98,0.00,,,0.00,weatherlink.com 1.10,2013-09-07 10:01:00,
2013-09-07 06:16:00,69.9,70.0,29.98,NNW,348,0.0,3.0,99,0.00,,,0.00,weatherlink.com 1.10,2013-09-07 10:16:00,
2013-09-07 06:31:00,70.0,70.0,29.99,NNW,345,0.0,1.0,99,0.00,,,0.00,weatherlink.com 1.10,2013-09-07 10:31:00,
2013-09-07 06:46:00,70.0,70.0,29.99,NNW,345,0.0,1.0,99,0.00,,,0.00,weatherlink.com 1.10,2013-09-07 10:46:00,
2013-09-07 07:01:00,70.3,70.0,30.00,NNW,345,0.0,1.0,99,0.00,,,0.00,weatherlink.com 1.10,2013-09-07 11:01:00,
2013-09-07 07:16:00,70.6,70.0,30.00,NNW,345,0.0,1.0,99,0.01,,,0.01,weatherlink.com 1.10,2013-09-07 11:16:00,
2013-09-07 07:31:00,71.0,71.0,30.00,NNW,345,0.0,1.0,99,0.01,,,0.01,weatherlink.com 1.10,2013-09-07 11:31:00,
2013-09-07 07:46:00,71.2,71.0,30.00,NNW,346,0.0,1.0,99,0.01,,,0.01,weatherlink.com 1.10,2013-09-07 11:46:00,
2013-09-07 08:01:00,71.6,71.0,30.00,NNW,346,0.0,1.0,99,0.00,,,0.01,weatherlink.com 1.10,2013-09-07 12:01:00,
2013-09-07 08:15:00,72.1,72.0,30.01,NNW,346,0.0,3.0,99,0.00,,,0.01,weatherlink.com 1.10,2013-09-07 12:15:00,
2013-09-07 08:30:00,72.5,72.0,30.01,North,5,0.0,5.0,99,0.00,,,0.01,weatherlink.com 1.10,2013-09-07 12:30:00,
2013-09-07 08:45:00,72.7,72.0,30.01,North,11,0.0,9.0,99,0.00,,,0.01,weatherlink.com 1.10,2013-09-07 12:45:00,
2013-09-07 09:01:00,73.0,73.0,30.01,NNE,17,2.0,8.0,99,0.00,,,0.01,weatherlink.com 1.10,2013-09-07 13:01:00,
2013-09-07 09:16:00,73.5,73.0,30.01,NNE,17,0.0,5.0,99,0.00,,,0.01,weatherlink.com 1.10,2013-09-07 13:16:00,
2013-09-07 09:31:00,73.9,74.0,30.01,North,5,0.0,5.0,100,0.00,,,0.01,weatherlink.com 1.10,2013-09-07 13:31:00,
2013-09-07 09:46:00,74.5,75.0,30.02,NNE,31,0.0,5.0,100,0.00,,,0.01,weatherlink.com 1.10,2013-09-07 13:46:00,
2013-09-07 10:01:00,75.1,75.0,30.02,NNE,18,4.0,8.0,100,0.00,,,0.01,weatherlink.com 1.10,2013-09-07 14:01:00,
2013-09-07 10:16:00,75.8,76.0,30.03,ENE,59,2.0,6.0,100,0.00,,,0.01,weatherlink.com 1.10,2013-09-07 14:16:00,
2013-09-07 10:31:00,76.0,76.0,30.04,NNE,20,0.0,6.0,99,0.00,,,0.01,weatherlink.com 1.10,2013-09-07 14:31:00,
2013-09-07 10:46:00,76.7,76.0,30.04,NE,43,0.0,3.0,99,0.00,,,0.01,weatherlink.com 1.10,2013-09-07 14:46:00,
2013-09-07 11:01:00,77.5,77.0,30.04,East,90,0.0,6.0,98,0.00,,,0.01,weatherlink.com 1.10,2013-09-07 15:01:00,
2013-09-07 11:17:00,78.4,77.0,30.04,NE,53,2.0,4.0,96,0.00,,,0.01,weatherlink.com 1.10,2013-09-07 15:17:00,
2013-09-07 11:32:00,79.5,77.0,30.03,NE,44,0.0,7.0,93,0.00,,,0.01,weatherlink.com 1.10,2013-09-07 15:32:00,
2013-09-07 11:47:00,81.8,79.0,30.03,East,98,8.0,8.0,90,0.00,,,0.01,weatherlink.com 1.10,2013-09-07 15:47:00,
2013-09-07 12:02:00,82.6,78.0,30.03,NNE,29,0.0,6.0,86,0.00,,,0.01,weatherlink.com 1.10,2013-09-07 16:02:00,
2013-09-07 12:17:00,83.2,79.0,30.03,SE,130,3.0,9.0,86,0.00,,,0.01,weatherlink.com 1.10,2013-09-07 16:17:00,
2013-09-07 12:32:00,83.7,78.0,30.02,NE,42,1.0,6.0,83,0.00,,,0.01,weatherlink.com 1.10,2013-09-07 16:32:00,
2013-09-07 12:47:00,83.7,78.0,30.02,East,82,0.0,8.0,82,0.00,,,0.01,weatherlink.com 1.10,2013-09-07 16:47:00,
2013-09-07 13:02:00,83.6,77.0,30.02,NE,37,0.0,6.0,79,0.00,,,0.01,weatherlink.com 1.10,2013-09-07 17:02:00,
2013-09-07 13:16:00,85.2,77.0,30.02,ESE,104,0.0,8.0,76,0.00,,,0.01,weatherlink.com 1.10,2013-09-07 17:16:00,
2013-09-07 13:31:00,86.4,77.0,30.01,ENE,78,0.0,5.0,73,0.00,,,0.01,weatherlink.com 1.10,2013-09-07 17:31:00,
2013-09-07 13:46:00,87.2,78.0,30.01,East,98,1.0,8.0,74,0.00,,,0.01,weatherlink.com 1.10,2013-09-07 17:46:00,
2013-09-07 14:01:00,87.5,77.0,30.00,NE,55,0.0,5.0,72,0.00,,,0.01,weatherlink.com 1.10,2013-09-07 18:01:00,
2013-09-07 14:17:00,87.5,77.0,29.99,ESE,103,0.0,7.0,71,0.00,,,0.01,weatherlink.com 1.10,2013-09-07 18:17:00,
2013-09-07 14:32:00,88.6,76.0,29.98,ESE,119,0.0,6.0,67,0.00,,,0.01,weatherlink.com 1.10,2013-09-07 18:32:00,
2013-09-07 14:47:00,89.4,76.0,29.97,NE,40,0.0,5.0,65,0.00,,,0.01,weatherlink.com 1.10,2013-09-07 18:47:00,
2013-09-07 15:02:00,89.7,76.0,29.96,West,270,0.0,7.0,65,0.00,,,0.01,weatherlink.com 1.10,2013-09-07 19:02:00,
2013-09-07 15:17:00,90.5,77.0,29.96,NW,317,4.0,8.0,64,0.00,,,0.01,weatherlink.com 1.10,2013-09-07 19:17:00,
2013-09-07 15:32:00,91.2,77.0,29.95,NW,324,5.0,6.0,64,0.00,,,0.01,weatherlink.com 1.10,2013-09-07 19:32:00,
2013-09-07 15:47:00,91.5,79.0,29.95,NW,308,0.0,5.0,67,0.00,,,0.01,weatherlink.com 1.10,2013-09-07 19:47:00,
2013-09-07 16:02:00,91.9,79.0,29.95,NNW,333,1.0,5.0,66,0.00,,,0.01,weatherlink.com 1.10,2013-09-07 20:02:00,
2013-09-07 16:17:00,91.3,77.0,29.94,WNW,292,1.0,5.0,63,0.00,,,0.01,weatherlink.com 1.10,2013-09-07 20:17:00,
2013-09-07 16:33:00,90.6,76.0,29.93,North,11,0.0,5.0,63,0.00,,,0.01,weatherlink.com 1.10,2013-09-07 20:33:00,
2013-09-07 16:48:00,91.0,79.0,29.92,NNE,33,0.0,6.0,67,0.00,,,0.01,weatherlink.com 1.10,2013-09-07 20:48:00,
2013-09-07 17:03:00,91.1,77.0,29.93,NNW,348,3.0,10.0,64,0.00,,,0.01,weatherlink.com 1.10,2013-09-07 21:03:00,
2013-09-07 17:18:00,90.9,78.0,29.93,NW,306,0.0,9.0,66,0.00,,,0.01,weatherlink.com 1.10,2013-09-07 21:18:00,
2013-09-07 17:33:00,90.7,77.0,29.92,NNW,339,0.0,6.0,65,0.00,,,0.01,weatherlink.com 1.10,2013-09-07 21:33:00,
2013-09-07 17:48:00,90.8,78.0,29.93,NNW,347,2.0,9.0,67,0.00,,,0.01,weatherlink.com 1.10,2013-09-07 21:48:00,
2013-09-07 18:03:00,89.4,77.0,29.93,SE,130,9.0,17.0,66,0.00,,,0.01,weatherlink.com 1.10,2013-09-07 22:03:00,
2013-09-07 18:18:00,85.2,75.0,29.93,East,87,2.0,13.0,71,0.00,,,0.01,weatherlink.com 1.10,2013-09-07 22:18:00,
2013-09-07 18:33:00,83.8,74.0,29.94,ENE,76,0.0,7.0,73,0.00,,,0.01,weatherlink.com 1.10,2013-09-07 22:33:00,
2013-09-07 18:48:00,82.5,73.0,29.95,East,101,0.0,6.0,73,0.00,,,0.01,weatherlink.com 1.10,2013-09-07 22:48:00,
2013-09-07 19:03:00,81.5,73.0,29.95,East,98,0.0,3.0,75,0.00,,,0.01,weatherlink.com 1.10,2013-09-07 23:03:00,
2013-09-07 19:18:00,80.5,73.0,29.95,East,96,0.0,3.0,78,0.00,,,0.01,weatherlink.com 1.10,2013-09-07 23:18:00,
2013-09-07 19:33:00,80.0,73.0,29.95,East,96,0.0,1.0,80,0.00,,,0.01,weatherlink.com 1.10,2013-09-07 23:33:00,
2013-09-07 19:48:00,79.5,74.0,29.95,East,96,0.0,0.0,82,0.00,,,0.01,weatherlink.com 1.10,2013-09-07 23:48:00,
2013-09-07 20:04:00,79.1,74.0,29.96,East,96,0.0,0.0,83,0.00,,,0.01,weatherlink.com 1.10,2013-09-08 00:04:00,
2013-09-07 20:19:00,78.5,74.0,29.98,East,96,0.0,0.0,85,0.00,,,0.01,weatherlink.com 1.10,2013-09-08 00:19:00,
2013-09-07 20:34:00,78.0,74.0,29.98,East,96,0.0,1.0,86,0.00,,,0.01,weatherlink.com 1.10,2013-09-08 00:34:00,
2013-09-07 20:49:00,77.9,74.0,29.98,East,96,0.0,0.0,86,0.00,,,0.01,weatherlink.com 1.10,2013-09-08 00:49:00,
2013-09-07 21:04:00,77.8,74.0,29.98,East,96,0.0,0.0,87,0.00,,,0.01,weatherlink.com 1.10,2013-09-08 01:04:00,
2013-09-07 21:19:00,77.6,74.0,29.99,SE,145,0.0,2.0,88,0.00,,,0.01,weatherlink.com 1.10,2013-09-08 01:19:00,
2013-09-07 21:34:00,77.3,74.0,29.98,SSW,194,0.0,6.0,88,0.00,,,0.01,weatherlink.com 1.10,2013-09-08 01:34:00,
2013-09-07 21:50:00,77.0,73.0,29.99,SSW,194,0.0,1.0,88,0.00,,,0.01,weatherlink.com 1.10,2013-09-08 01:50:00,
2013-09-07 22:05:00,76.8,73.0,29.99,SSW,194,0.0,0.0,88,0.00,,,0.01,weatherlink.com 1.10,2013-09-08 02:05:00,
2013-09-07 22:20:00,76.4,73.0,29.99,SSW,194,0.0,1.0,90,0.00,,,0.01,weatherlink.com 1.10,2013-09-08 02:20:00,
2013-09-07 22:35:00,76.0,73.0,29.99,SSW,194,0.0,1.0,90,0.00,,,0.01,weatherlink.com 1.10,2013-09-08 02:35:00,
2013-09-07 22:50:00,75.7,73.0,29.99,SSW,194,0.0,0.0,91,0.00,,,0.01,weatherlink.com 1.10,2013-09-08 02:50:00,
2013-09-07 23:05:00,75.4,73.0,29.98,SSW,194,0.0,0.0,92,0.00,,,0.01,weatherlink.com 1.10,2013-09-08 03:05:00,
2013-09-07 23:20:00,75.1,73.0,29.98,SSW,194,0.0,0.0,92,0.00,,,0.01,weatherlink.com 1.10,2013-09-08 03:20:00,
2013-09-07 23:35:00,74.7,72.0,29.98,SSW,194,0.0,0.0,92,0.00,,,0.01,weatherlink.com 1.10,2013-09-08 03:35:00,
2013-09-07 23:50:00,74.3,72.0,29.98,SSW,194,0.0,0.0,92,0.00,,,0.01,weatherlink.com 1.10,2013-09-08 03:50:00,